Latest Weather Observations for Cairns

IDQ60801

Issued at 2:02 pm EST Wednesday 28 January 2015 (issued every 30 minutes, with the page automatically refreshed every 10 minutes)

About weather observations | Map of weather stations | Latest weather observations for QLD | Other Formats
Station Details ID: 031011 Name: CAIRNS AERO Lat: -16.87 Lon: 145.75 Height: 2.22 m
Data from the previous 72 hours. | See also: Recent months at Cairns
Date/Time
EST
Temp
°C
App
Temp
°C
Dew
Point
Rel
Hum
%
Delta-T
°C
Wind Press
QNH
hPa
Press
MSL
hPa
Rain
since 9 am
mm
Dir
 
Spd
km/h
Gust
km/h
Spd
kts
Gust
kts
28/01:30pm 33.6 35.8 22.6 52 7.6 NNE 15 22 8 12 999.8 - 0.0
28/01:00pm 34.1 35.0 22.7 51 7.9 NNE 22 26 12 14 1000.1 - 0.0
28/12:30pm 35.1 35.9 21.3 44 9.4 ENE 19 20 10 11 1000.4 - 0.0
28/12:00pm 34.8 36.6 21.8 46 8.9 NE 15 17 8 9 1000.8 1000.7 0.0
28/11:30am 34.4 37.0 22.0 48 8.5 N 11 15 6 8 1001.1 - 0.0
28/11:00am 34.7 37.5 21.5 46 9.0 W 9 15 5 8 1001.1 - 0.0
28/10:30am 34.6 37.9 21.9 47 8.7 WSW 7 17 4 9 1001.2 - 0.0
28/10:00am 33.3 35.6 20.7 47 8.4 W 9 20 5 11 1001.2 - 0.0
28/09:30am 32.9 36.6 21.4 50 7.8 SSW 4 9 2 5 1001.4 - 0.0
28/09:00am 32.3 35.2 20.7 50 7.8 SSW 6 7 3 4 1001.7 1001.6 0.0
28/08:30am 31.1 34.4 21.8 57 6.3 SSW 7 9 4 5 1001.8 - 0.0
28/08:00am 29.9 35.3 23.2 67 4.6 CALM 0 0 0 0 1001.8 - 0.0
28/07:00am 26.2 30.9 23.3 84 2.0 N 4 7 2 4 1001.4 - 0.0
28/06:30am 25.9 30.4 22.2 80 2.5 NNE 2 9 1 5 1001.0 - 0.0
28/05:30am 24.7 29.6 22.3 86 1.6 CALM 0 0 0 0 1000.4 - 0.0
28/05:00am 24.9 28.6 22.2 85 1.8 ESE 6 7 3 4 1000.3 - 0.0
28/04:30am 25.1 29.6 22.3 84 1.9 SSE 2 9 1 5 1000.1 - 0.0
28/04:00am 25.0 28.7 22.5 86 1.7 SE 7 9 4 5 1000.3 - 0.0
28/03:30am 24.9 29.7 22.2 85 1.8 CALM 0 0 0 0 1000.2 - 0.0
28/03:00am 24.7 29.8 22.6 88 1.4 CALM 0 0 0 0 1000.4 1000.3 0.0
28/02:30am 25.1 30.2 22.6 86 1.7 CALM 0 0 0 0 1000.5 - 0.0
28/02:00am 25.1 30.2 22.6 86 1.7 CALM 0 0 0 0 1000.7 - 0.0
28/01:30am 25.5 29.5 22.7 84 1.9 SE 6 7 3 4 1000.8 - 0.0
28/01:00am 25.4 29.1 22.6 84 1.9 SSE 7 11 4 6 1001.1 - 0.0
28/12:30am 25.7 29.0 22.6 83 2.1 SSE 9 11 5 6 1001.6 - 0.0
28/12:00am 25.7 31.3 23.5 88 1.5 CALM 0 0 0 0 1001.9 1001.8 0.0
 
Date/Time
EST
Temp
°C
App
Temp
°C
Dew
Point
Rel
Hum
%
Delta-T
°C
Wind Press
QNH
hPa
Press
MSL
hPa
Rain
since 9 am
mm
Dir
 
Spd
km/h
Gust
km/h
Spd
kts
Gust
kts
27/11:30pm 26.2 31.4 23.6 85 1.8 WSW 2 7 1 4 1002.5 - 0.0
27/11:00pm 26.5 32.2 23.7 84 1.9 CALM 0 0 0 0 1002.6 - 0.0
27/10:30pm 26.7 32.5 23.9 84 1.9 CALM 0 0 0 0 1002.9 - 0.0
27/10:00pm 26.9 31.2 23.7 82 2.2 W 7 9 4 5 1002.9 - 0.0
27/09:30pm 26.7 32.2 24.1 86 1.8 WSW 2 6 1 3 1002.8 - 0.0
27/09:00pm 26.9 31.2 23.6 82 2.3 S 7 11 4 6 1002.9 1002.8 0.0
27/08:30pm 27.9 32.9 23.2 75 3.2 E 2 7 1 4 1002.6 - 0.0
27/08:00pm 28.6 31.6 21.9 67 4.5 WSW 9 15 5 8 1002.2 - 0.0
27/07:30pm 28.7 31.6 22.5 69 4.2 W 11 13 6 7 1001.8 - 0.0
27/07:00pm 29.2 32.8 22.3 66 4.7 WSW 7 11 4 6 1001.8 - 0.0
27/06:30pm 29.0 32.9 23.0 70 4.1 WNW 7 9 4 5 1001.7 - 0.0
27/06:00pm 29.4 33.5 22.2 65 4.9 SW 4 9 2 5 1001.6 1001.5 0.0
27/05:30pm 29.3 31.7 22.2 65 4.8 W 13 19 7 10 1001.1 - 0.0
27/05:00pm 29.4 30.7 21.7 63 5.2 W 17 26 9 14 1000.7 - 0.0
27/04:52pm 29.5 30.1 21.3 61 5.5 W 20 26 11 14 1000.6 - 0.0
27/04:30pm 30.0 31.6 21.5 60 5.7 WNW 15 20 8 11 1000.2 - 0.0
27/04:00pm 30.0 32.7 22.2 63 5.3 NW 11 17 6 9 1000.4 - 0.0
27/03:30pm 30.4 32.7 22.0 60 5.7 NW 13 17 7 9 1000.6 - 0.0
27/03:00pm 31.2 34.6 24.0 65 5.0 NNW 13 15 7 8 1000.9 1000.8 0.0
27/02:30pm 31.0 33.4 23.7 65 5.1 N 17 22 9 12 1000.6 - 0.0
27/02:00pm 32.1 36.4 24.3 63 5.5 N 9 13 5 7 1001.0 - 0.0
27/01:30pm 31.6 35.7 24.5 66 5.0 N 11 17 6 9 1001.4 - 0.0
27/01:29pm 32.1 35.3 24.3 63 5.5 NNE 15 20 8 11 1001.7 - 0.0
27/01:00pm 32.1 35.3 24.3 63 5.5 NNE 15 20 8 11 1001.7 - 0.0
27/12:30pm 34.3 37.6 23.9 54 7.3 N 13 17 7 9 1001.9 - 0.0
27/12:00pm 33.9 37.1 21.6 48 8.4 E 7 9 4 5 1002.1 1002.0 0.0
27/11:30am 33.0 36.6 22.0 52 7.5 SSE 6 11 3 6 1002.5 - 0.0
27/11:00am 32.3 37.5 23.5 59 6.1 ESE 2 9 1 5 1002.9 - 0.0
27/10:30am 30.9 35.2 22.6 61 5.7 W 4 9 2 5 1003.4 - 0.0
27/10:00am 29.9 33.3 22.7 65 4.9 W 9 11 5 6 1003.7 - 0.0
27/09:30am 28.9 32.4 22.9 70 4.1 W 9 13 5 7 1003.8 - 0.0
27/09:00am 27.6 30.8 22.3 73 3.6 SW 9 13 5 7 1003.9 1003.8 2.2
27/08:30am 26.8 29.8 22.0 75 3.2 WSW 9 13 5 7 1004.0 - 2.2
27/08:00am 26.5 29.0 21.7 75 3.2 WSW 11 17 6 9 1003.9 - 2.2
27/07:30am 26.1 28.4 21.3 75 3.2 W 11 15 6 8 1003.8 - 2.2
27/07:00am 25.5 28.3 21.6 79 2.6 WSW 9 13 5 7 1003.7 - 2.2
27/06:30am 25.1 28.2 21.5 80 2.4 W 7 11 4 6 1003.5 - 2.2
27/06:00am 24.3 27.2 21.7 85 1.7 W 9 11 5 6 1003.0 1002.9 2.2
27/05:30am 23.9 27.1 22.3 91 1.1 W 9 11 5 6 1003.0 - 2.2
27/05:00am 23.9 29.0 22.6 92 0.9 CALM 0 0 0 0 1003.4 - 2.2
27/04:30am 24.0 28.4 22.8 93 0.8 S 4 9 2 5 1003.4 - 2.2
27/04:00am 24.3 28.1 22.7 91 1.1 SW 7 11 4 6 1003.6 - 2.2
27/03:30am 24.2 28.4 23.2 94 0.7 SW 6 9 3 5 1004.2 - 2.0
27/03:00am 24.3 27.9 23.1 93 0.8 SW 9 19 5 10 1004.1 1004.0 2.0
27/02:30am 24.7 28.2 22.9 90 1.2 SSE 9 13 5 7 1004.2 - 2.0
27/02:00am 24.3 28.3 23.1 93 0.8 S 7 11 4 6 1004.4 - 2.0
27/01:30am 24.6 29.3 23.3 92 0.9 NNW 4 7 2 4 1004.7 - 2.0
27/01:00am 24.7 28.9 23.4 92 0.9 WSW 7 13 4 7 1004.9 - 1.6
27/12:30am 24.8 28.3 23.5 92 0.9 N 11 13 6 7 1005.7 - 1.2
27/12:00am 25.2 27.5 23.4 90 1.2 SSE 17 24 9 13 1006.3 1006.2 0.2
 
Date/Time
EST
Temp
°C
App
Temp
°C
Dew
Point
Rel
Hum
%
Delta-T
°C
Wind Press
QNH
hPa
Press
MSL
hPa
Rain
since 9 am
mm
Dir
 
Spd
km/h
Gust
km/h
Spd
kts
Gust
kts
26/11:30pm 26.5 29.7 22.3 78 2.8 S 9 17 5 9 1006.4 - 0.0
26/11:00pm 26.4 28.7 22.7 80 2.5 SSE 15 19 8 10 1006.4 - 0.0
26/10:30pm 27.3 28.6 22.7 76 3.1 SSE 20 28 11 15 1006.3 - 0.0
26/10:00pm 28.3 31.5 23.7 76 3.2 SSE 13 15 7 8 1005.6 - 0.0
26/09:30pm 28.8 30.7 23.7 74 3.5 SE 20 26 11 14 1005.0 - 0.0
26/09:00pm 29.3 35.0 27.6 90 1.2 SE 13 15 7 8 1004.6 1004.5 0.0
26/08:30pm 29.0 36.4 27.5 92 1.1 WSW 4 9 2 5 1004.5 - 0.0
26/08:00pm 29.1 36.0 27.4 90 1.2 NNW 6 7 3 4 1004.2 - 0.0
26/07:30pm 29.3 35.9 27.2 88 1.5 W 7 9 4 5 1004.1 - 0.0
26/07:00pm 29.3 35.5 27.2 88 1.5 NW 9 20 5 11 1003.3 - 0.0
26/06:30pm 30.1 35.5 27.2 84 2.1 NNW 13 22 7 12 1002.8 - 0.0
26/06:00pm 30.8 36.2 26.0 75 3.4 NNW 9 13 5 7 1002.5 1002.4 0.0
26/05:30pm 31.0 36.3 25.8 74 3.7 NW 9 15 5 8 1002.2 - 0.0
26/05:00pm 31.1 36.0 25.8 73 3.8 NW 11 15 6 8 1002.1 - 0.0
26/04:30pm 30.9 35.3 25.1 71 4.1 NNW 11 17 6 9 1002.0 - 0.0
26/04:00pm 31.4 34.9 25.5 71 4.2 N 17 22 9 12 1002.0 - 0.0
26/03:30pm 32.0 35.8 26.4 72 4.0 N 19 24 10 13 1002.3 - 0.0
26/03:00pm 31.7 34.4 25.7 70 4.3 N 22 28 12 15 1002.7 1002.6 0.0
26/02:30pm 31.6 34.1 25.9 72 4.1 N 24 30 13 16 1003.0 - 0.0
26/02:00pm 31.8 34.3 25.9 71 4.2 N 24 30 13 16 1003.4 - 0.0
26/01:30pm 31.6 33.3 25.9 72 4.1 N 28 32 15 17 1003.9 - 0.0
26/01:00pm 34.6 36.4 23.3 52 7.9 W 19 26 10 14 1004.3 - 0.0
26/12:30pm 34.2 35.8 23.3 53 7.6 W 20 28 11 15 1004.8 - 0.0
26/12:00pm 33.5 36.2 22.9 53 7.3 WSW 13 19 7 10 1005.2 1005.1 0.0
26/11:30am 32.7 34.5 23.2 57 6.6 W 19 28 10 15 1005.7 - 0.0
26/11:00am 32.0 33.7 23.0 59 6.2 WNW 19 32 10 17 1006.2 - 0.0
26/10:30am 31.5 33.3 23.2 61 5.7 W 19 30 10 16 1006.4 - 0.0
26/10:00am 31.6 33.9 23.5 62 5.6 W 17 28 9 15 1006.5 - 0.0
26/09:30am 31.0 32.9 23.8 65 5.0 W 20 30 11 16 1006.6 - 0.0
26/09:00am 29.8 30.7 23.4 68 4.4 WNW 24 35 13 19 1006.6 1006.5 2.8
26/08:30am 28.9 30.8 23.8 74 3.5 WNW 20 33 11 18 1006.8 - 2.8
26/08:00am 27.7 32.8 24.7 84 2.1 WNW 6 7 3 4 1007.5 - 2.8
26/07:30am 26.8 31.4 24.2 86 1.8 W 7 9 4 5 1007.6 - 2.8
26/07:00am 25.9 30.0 23.9 89 1.4 SE 9 13 5 7 1007.5 - 2.8
26/06:30am 25.1 29.6 23.9 93 0.8 SSE 7 13 4 7 1007.6 - 2.8
26/06:00am 25.3 28.8 23.5 90 1.2 SE 11 13 6 7 1007.4 1007.3 2.8
26/05:30am 24.8 29.2 23.8 94 0.7 SW 7 9 4 5 1007.3 - 2.8
26/05:00am 25.0 28.6 23.8 93 0.8 SE 11 15 6 8 1007.0 - 2.8
26/04:30am 25.0 29.2 24.1 95 0.6 SSE 9 11 5 6 1006.7 - 2.8
26/04:00am 24.9 30.5 24.2 96 0.5 S 2 9 1 5 1006.7 - 2.8
26/03:30am 24.6 30.1 24.0 96 0.4 SSE 2 9 1 5 1006.6 - 2.8
26/03:00am 25.0 30.5 24.0 94 0.7 SSE 2 7 1 4 1006.7 1006.6 2.8
26/02:30am 24.9 29.9 23.9 94 0.7 W 4 9 2 5 1006.8 - 2.8
26/02:00am 24.9 29.0 23.9 94 0.7 NNW 9 11 5 6 1006.9 - 2.8
26/01:30am 24.8 30.7 24.1 96 0.5 CALM 0 0 0 0 1007.0 - 2.8
26/01:00am 25.2 29.3 23.9 92 0.9 S 9 11 5 6 1007.4 - 2.8
26/12:30am 25.4 30.0 24.1 92 0.9 W 7 11 4 6 1008.0 - 2.8
26/12:00am 25.4 29.7 23.6 90 1.2 S 7 11 4 6 1008.5 1008.4 2.8
 
Date/Time
EST
Temp
°C
App
Temp
°C
Dew
Point
Rel
Hum
%
Delta-T
°C
Wind Press
QNH
hPa
Press
MSL
hPa
Rain
since 9 am
mm
Dir
 
Spd
km/h
Gust
km/h
Spd
kts
Gust
kts
25/11:30pm 25.9 29.9 23.7 88 1.5 ESE 9 13 5 7 1008.7 - 2.6
25/11:00pm 26.0 28.2 24.0 89 1.4 SE 19 30 10 16 1008.7 - 2.6
25/10:30pm 26.1 29.6 23.5 85 1.8 S 11 20 6 11 1009.0 - 2.6
25/10:00pm 25.9 30.3 24.5 92 1.0 S 9 15 5 8 1008.5 - 2.4
25/09:30pm 25.9 31.0 25.0 95 0.6 WSW 7 9 4 5 1007.6 - 2.2
25/09:00pm 26.2 32.4 24.6 91 1.1 CALM 0 0 0 0 1007.1 1007.0 1.6
25/08:30pm 26.7 32.0 24.4 87 1.6 W 4 11 2 6 1007.2 - 1.2
25/08:00pm 26.8 31.1 24.9 89 1.3 ESE 11 19 6 10 1007.0 - 1.0
25/07:52pm 27.4 31.4 23.8 81 2.5 NNE 9 13 5 7 1006.8 - 1.0
25/07:38pm 26.9 30.8 24.9 89 1.4 SW 13 17 7 9 1007.2 - 0.8
25/07:30pm 27.6 30.4 24.9 85 1.9 S 19 30 10 16 1007.5 - 0.2
25/07:22pm 28.6 33.3 25.5 83 2.2 SW 11 26 6 14 1007.4 - 0.0
25/07:00pm 29.1 34.1 26.6 86 1.8 NW 13 19 7 10 1006.7 - 0.0
25/06:56pm 29.1 34.1 26.6 86 1.8 NNW 13 19 7 10 1006.8 - 0.0
25/06:30pm 28.7 33.6 26.9 90 1.3 NNW 15 24 8 13 1005.7 - 0.0
25/06:00pm 29.2 31.1 26.7 86 1.8 N 30 37 16 20 1005.2 1005.1 0.0
25/05:30pm 29.5 32.3 26.4 83 2.2 N 24 33 13 18 1005.0 - 0.0
25/05:00pm 30.2 34.3 26.4 80 2.7 N 17 30 9 16 1004.8 - 0.0
25/04:30pm 31.1 34.9 26.4 76 3.4 N 19 28 10 15 1004.4 - 0.0
25/04:00pm 31.4 34.6 25.5 71 4.2 N 19 26 10 14 1004.5 - 0.0
25/03:30pm 31.4 34.2 24.9 68 4.6 N 19 26 10 14 1004.8 - 0.0
25/03:00pm 31.2 34.5 25.1 70 4.3 NNE 17 28 9 15 1005.2 1005.1 0.0
25/02:30pm 31.9 35.2 26.0 71 4.2 N 20 28 11 15 1005.5 - 0.0

Other Formats:

Comma delimited format used in spreadsheet applications
http://www.bom.gov.au/fwo/IDQ60801/IDQ60801.94287.axf

JavaScript Object Notation format (JSON) in row-major order
http://www.bom.gov.au/fwo/IDQ60801/IDQ60801.94287.json